Time;durP1;ratioP1;P1;durP2;ratioP2;P2;SDS_P1;SDS_P2;PMS_P1;PMS_P2;Temp;Humidity;BMP_temperature;BMP_pressure;BME280_temperature;BME280_humidity;BME280_pressure;Samples;Min_cycle;Max_cycle;Signal;HPM_P1;HPM_P2
2023/04/03 17:23:41;;;;;;;14.13;5.40;;;;;;;;;;21055781;27;20448;-59
2023/04/03 17:33:43;;;;;;;4.45;1.20;;;;;;;;;;20929952;28;20344;-65
2023/04/03 17:43:44;;;;;;;4.40;1.52;;;;;;;;;;20900718;28;20446;-67
2023/04/03 17:53:47;;;;;;;4.22;2.33;;;;;;;;;;20970738;28;20486;-62
2023/04/03 18:03:51;;;;;;;4.95;1.20;;;;;;;;;;20978293;28;20543;-63
2023/04/03 18:13:53;;;;;;;8.70;1.88;;;;;;;;;;20980880;28;20474;-63
2023/04/03 18:23:55;;;;;;;4.05;1.10;;;;;;;;;;20980070;28;20048;-63
2023/04/03 18:33:57;;;;;;;3.20;1.40;;;;;;;;;;20929744;28;20045;-63
2023/04/03 18:44:00;;;;;;;2.40;0.82;;;;;;;;;;20924827;28;20124;-62
2023/04/03 18:54:02;;;;;;;9.77;4.53;;;;;;;;;;20923300;28;20041;-63
2023/04/03 19:04:04;;;;;;;5.13;1.40;;;;;;;;;;20921304;28;20060;-63
2023/04/03 19:14:06;;;;;;;3.28;1.38;;;;;;;;;;20920297;28;20502;-63
2023/04/03 19:24:09;;;;;;;3.53;1.30;;;;;;;;;;20920548;28;20053;-62
2023/04/03 19:34:11;;;;;;;3.80;1.40;;;;;;;;;;20919672;28;20090;-63
2023/04/03 19:44:13;;;;;;;3.30;1.30;;;;;;;;;;20917608;28;20151;-63
2023/04/03 19:54:15;;;;;;;3.47;1.58;;;;;;;;;;20918592;28;20512;-62
2023/04/03 20:04:16;;;;;;;5.47;1.88;;;;;;;;;;20917787;28;20406;-62
2023/04/03 20:14:18;;;;;;;3.10;1.45;;;;;;;;;;20916549;28;20057;-63
2023/04/03 20:24:20;;;;;;;3.83;1.08;;;;;;;;;;20915727;28;20049;-63
2023/04/03 20:34:22;;;;;;;2.95;1.15;;;;;;;;;;20914824;28;20387;-63
2023/04/03 20:44:24;;;;;;;2.35;1.05;;;;;;;;;;20914451;28;20041;-63
2023/04/03 20:54:25;;;;;;;5.38;2.92;;;;;;;;;;20913504;28;20048;-61
2023/04/03 21:04:31;;;;;;;5.85;1.50;;;;;;;;;;20913373;28;20045;-63
2023/04/03 21:14:52;;;;;;;3.03;1.42;;;;;;;;;;20912467;28;20053;-62
2023/04/03 21:24:54;;;;;;;4.78;1.70;;;;;;;;;;20910399;28;20041;-63
2023/04/03 21:34:56;;;;;;;5.03;1.30;;;;;;;;;;20911329;28;20119;-62
2023/04/03 21:44:58;;;;;;;2.28;0.90;;;;;;;;;;20911040;28;20049;-62
2023/04/03 21:55:00;;;;;;;3.65;0.70;;;;;;;;;;20912272;28;20431;-63
2023/04/03 22:05:02;;;;;;;2.53;0.50;;;;;;;;;;20919332;28;20045;-63
2023/04/03 22:15:04;;;;;;;3.67;1.15;;;;;;;;;;20925592;28;20106;-62
2023/04/03 22:25:06;;;;;;;3.55;1.30;;;;;;;;;;20926551;28;20049;-62
2023/04/03 22:35:08;;;;;;;3.38;1.58;;;;;;;;;;20925774;28;20052;-62
2023/04/03 22:45:10;;;;;;;4.30;1.90;;;;;;;;;;20925008;28;20399;-62
2023/04/03 22:55:12;;;;;;;2.42;0.90;;;;;;;;;;20922933;28;20139;-62
2023/04/03 23:05:14;;;;;;;1.33;0.47;;;;;;;;;;20923455;28;20410;-63
2023/04/03 23:15:18;;;;;;;4.47;0.90;;;;;;;;;;20920872;28;20049;-63
2023/04/03 23:25:19;;;;;;;3.28;0.60;;;;;;;;;;20920632;28;20076;-63
2023/04/03 23:35:22;;;;;;;1.67;0.57;;;;;;;;;;20921302;28;20107;-63
2023/04/03 23:45:24;;;;;;;0.95;0.40;;;;;;;;;;20920769;28;20583;-62
2023/04/03 23:55:25;;;;;;;3.13;0.70;;;;;;;;;;20919630;28;20041;-62
